Time;durP1;ratioP1;P1;durP2;ratioP2;P2;SDS_P1;SDS_P2;PMS_P1;PMS_P2;Temp;Humidity;BMP_temperature;BMP_pressure;BME280_temperature;BME280_humidity;BME280_pressure;Samples;Min_cycle;Max_cycle;Signal;HPM_P1;HPM_P2
2023/05/22 00:00:23;;;;;;;5.05;4.10;;;;;;;;;;5100903;28;20016;-74
2023/05/22 00:02:49;;;;;;;5.60;3.92;;;;;;;;;;5101022;28;20032;-74
2023/05/22 00:05:17;;;;;;;7.15;4.20;;;;;;;;;;5101010;28;20028;-75
2023/05/22 00:07:43;;;;;;;6.45;4.50;;;;;;;;;;5100710;28;20032;-74
2023/05/22 00:10:09;;;;;;;6.97;4.50;;;;;;;;;;5116596;28;20258;-75
2023/05/22 00:12:34;;;;;;;4.53;3.55;;;;;;;;;;5100841;28;20020;-75
2023/05/22 00:15:03;;;;;;;6.57;4.53;;;;;;;;;;5100549;28;20023;-74
2023/05/22 00:17:29;;;;;;;4.40;3.60;;;;;;;;;;5100715;28;20031;-74
2023/05/22 00:19:55;;;;;;;5.93;4.10;;;;;;;;;;5100765;28;20088;-74
2023/05/22 00:22:21;;;;;;;4.43;3.70;;;;;;;;;;5100161;28;20065;-74
2023/05/22 00:24:46;;;;;;;5.60;4.00;;;;;;;;;;5100588;28;20032;-74
2023/05/22 00:27:12;;;;;;;5.43;3.88;;;;;;;;;;5100524;28;20024;-74
2023/05/22 00:29:37;;;;;;;5.25;4.43;;;;;;;;;;5100434;28;20024;-74
2023/05/22 00:32:04;;;;;;;5.85;4.82;;;;;;;;;;5100446;28;20307;-74
2023/05/22 00:34:29;;;;;;;6.70;5.03;;;;;;;;;;5100303;28;20024;-75
2023/05/22 00:36:55;;;;;;;6.53;4.40;;;;;;;;;;5100225;28;20039;-74
2023/05/22 00:39:20;;;;;;;6.78;4.60;;;;;;;;;;5099691;28;20020;-74
2023/05/22 00:41:46;;;;;;;6.40;4.80;;;;;;;;;;5100349;28;20043;-74
2023/05/22 00:44:11;;;;;;;6.72;5.05;;;;;;;;;;5100342;28;20425;-74
2023/05/22 00:46:37;;;;;;;5.32;4.68;;;;;;;;;;5100211;28;20101;-74
2023/05/22 00:49:05;;;;;;;5.82;4.75;;;;;;;;;;5100123;28;20069;-74
2023/05/22 00:51:31;;;;;;;7.72;4.50;;;;;;;;;;5099849;28;20099;-74
2023/05/22 00:53:56;;;;;;;5.70;4.43;;;;;;;;;;5100269;28;20027;-74
2023/05/22 00:56:22;;;;;;;8.02;4.43;;;;;;;;;;5100112;28;20031;-74
2023/05/22 00:58:48;;;;;;;6.70;4.28;;;;;;;;;;5100245;28;20031;-75
2023/05/22 01:01:14;;;;;;;7.20;4.78;;;;;;;;;;5100106;28;20322;-74
2023/05/22 01:03:43;;;;;;;7.15;5.05;;;;;;;;;;5082165;28;20034;-74
2023/05/22 01:06:13;;;;;;;5.35;4.28;;;;;;;;;;5099619;28;20091;-74
2023/05/22 01:08:40;;;;;;;5.57;4.40;;;;;;;;;;5100005;28;20170;-74
2023/05/22 01:11:20;;;;;;;6.63;4.40;;;;;;;;;;5100019;28;20055;-74
2023/05/22 01:14:07;;;;;;;4.82;4.28;;;;;;;;;;5100139;28;20027;-75
2023/05/22 01:16:58;;;;;;;5.13;4.30;;;;;;;;;;5099957;28;20465;-74
2023/05/22 01:19:59;;;;;;;6.90;4.43;;;;;;;;;;5099920;28;20054;-74
2023/05/22 01:22:44;;;;;;;6.75;4.82;;;;;;;;;;5099326;28;20098;-74
2023/05/22 01:25:27;;;;;;;6.72;4.75;;;;;;;;;;5099869;28;20059;-74
2023/05/22 01:28:27;;;;;;;5.80;4.63;;;;;;;;;;5099705;28;20446;-74
2023/05/22 01:31:10;;;;;;;6.33;4.67;;;;;;;;;;5099800;28;20091;-75
2023/05/22 01:33:56;;;;;;;6.82;4.78;;;;;;;;;;5099899;28;20031;-74
2023/05/22 01:36:27;;;;;;;7.60;4.53;;;;;;;;;;5099354;28;20015;-74
2023/05/22 01:38:53;;;;;;;;;;;;;;;;;;5100169;28;20210;-74
2023/05/22 01:41:20;;;;;;;5.53;4.13;;;;;;;;;;5099593;28;20246;-74
2023/05/22 01:43:45;;;;;;;6.47;4.63;;;;;;;;;;5099706;28;20024;-74
2023/05/22 01:46:11;;;;;;;6.75;4.60;;;;;;;;;;5099586;28;20039;-74
2023/05/22 01:48:36;;;;;;;6.88;4.57;;;;;;;;;;5099649;28;20026;-74
2023/05/22 01:51:14;;;;;;;6.03;4.28;;;;;;;;;;5101113;28;20032;-74
2023/05/22 01:53:47;;;;;;;5.20;4.07;;;;;;;;;;5103681;28;20050;-74
2023/05/22 01:56:18;;;;;;;6.35;4.55;;;;;;;;;;5103323;28;20023;-75
2023/05/22 01:58:57;;;;;;;5.45;4.40;;;;;;;;;;5103350;28;20073;-74
2023/05/22 02:01:27;;;;;;;6.47;4.72;;;;;;;;;;5103084;28;20145;-74
2023/05/22 02:03:55;;;;;;;6.03;4.55;;;;;;;;;;5103378;28;20027;-74
2023/05/22 02:06:22;;;;;;;6.25;4.43;;;;;;;;;;5102956;28;20024;-74
2023/05/22 02:08:49;;;;;;;5.97;4.22;;;;;;;;;;5103295;28;20028;-74
2023/05/22 02:11:16;;;;;;;5.45;4.20;;;;;;;;;;5103075;28;20127;-74
2023/05/22 02:13:41;;;;;;;8.02;4.90;;;;;;;;;;5103211;28;20031;-74
2023/05/22 02:16:08;;;;;;;6.45;4.70;;;;;;;;;;5103030;28;20095;-74
2023/05/22 02:18:33;;;;;;;4.63;3.90;;;;;;;;;;5102816;28;20027;-74
2023/05/22 02:20:59;;;;;;;5.25;4.47;;;;;;;;;;5102950;28;20020;-74
2023/05/22 02:23:28;;;;;;;6.20;4.20;;;;;;;;;;5118547;28;20290;-74
2023/05/22 02:25:54;;;;;;;5.20;3.97;;;;;;;;;;5102677;28;20276;-74
2023/05/22 02:28:20;;;;;;;6.50;4.85;;;;;;;;;;5102850;28;20138;-74
2023/05/22 02:30:45;;;;;;;6.43;4.20;;;;;;;;;;5102847;28;20334;-74
2023/05/22 02:33:10;;;;;;;5.63;4.13;;;;;;;;;;5102755;28;20082;-74
2023/05/22 02:35:36;;;;;;;7.80;5.03;;;;;;;;;;5102762;28;20027;-74
2023/05/22 02:38:02;;;;;;;6.90;5.20;;;;;;;;;;5102243;28;20069;-74
2023/05/22 02:40:27;;;;;;;7.45;5.13;;;;;;;;;;5102689;28;20052;-73
2023/05/22 02:42:53;;;;;;;8.13;5.22;;;;;;;;;;5102434;28;20040;-73
2023/05/22 02:45:18;;;;;;;5.68;5.07;;;;;;;;;;5102730;28;20028;-74
2023/05/22 02:47:43;;;;;;;6.88;5.35;;;;;;;;;;5084402;28;20024;-74
2023/05/22 02:50:09;;;;;;;8.07;5.75;;;;;;;;;;5102212;28;20030;-74
2023/05/22 02:52:35;;;;;;;6.18;4.63;;;;;;;;;;5083675;28;20089;-74
2023/05/22 02:55:03;;;;;;;7.68;5.13;;;;;;;;;;5102374;28;20358;-74
2023/05/22 02:57:28;;;;;;;7.03;5.78;;;;;;;;;;5102213;28;20087;-74
2023/05/22 02:59:54;;;;;;;7.32;5.78;;;;;;;;;;5102101;28;20048;-74
2023/05/22 03:02:19;;;;;;;6.40;5.20;;;;;;;;;;5101983;28;20107;-74
2023/05/22 03:04:45;;;;;;;6.97;5.97;;;;;;;;;;5102566;28;20020;-74
2023/05/22 03:07:13;;;;;;;6.70;5.20;;;;;;;;;;5118562;28;20507;-74
2023/05/22 03:09:39;;;;;;;8.40;6.15;;;;;;;;;;5122408;28;20091;-75
2023/05/22 03:12:04;;;;;;;7.53;5.90;;;;;;;;;;5122322;28;20031;-74
2023/05/22 03:14:30;;;;;;;7.47;5.70;;;;;;;;;;5122585;28;20047;-74
2023/05/22 03:16:55;;;;;;;7.93;6.57;;;;;;;;;;5122260;28;20024;-75
2023/05/22 03:19:21;;;;;;;7.65;6.13;;;;;;;;;;5122237;28;20091;-75
2023/05/22 03:21:48;;;;;;;8.93;6.43;;;;;;;;;;5121833;28;20046;-74
2023/05/22 03:24:14;;;;;;;8.05;5.85;;;;;;;;;;5122163;28;20023;-74
2023/05/22 03:26:40;;;;;;;8.10;6.65;;;;;;;;;;5122043;28;20064;-74
2023/05/22 03:29:06;;;;;;;7.95;6.38;;;;;;;;;;5122058;28;20465;-75
2023/05/22 03:31:32;;;;;;;9.95;6.70;;;;;;;;;;5122008;28;20345;-75
2023/05/22 03:33:58;;;;;;;9.13;6.60;;;;;;;;;;5122089;28;20076;-75
2023/05/22 03:36:24;;;;;;;9.13;6.60;;;;;;;;;;5121676;28;20027;-74
2023/05/22 03:38:49;;;;;;;8.68;6.75;;;;;;;;;;5121926;28;20019;-74
2023/05/22 03:41:15;;;;;;;7.50;6.35;;;;;;;;;;5121785;28;20026;-74
2023/05/22 03:43:41;;;;;;;9.75;6.43;;;;;;;;;;5121611;28;20052;-74
2023/05/22 03:46:06;;;;;;;8.43;6.60;;;;;;;;;;5121844;28;20051;-75
2023/05/22 03:48:33;;;;;;;9.70;7.05;;;;;;;;;;5121475;28;20031;-74
2023/05/22 03:50:58;;;;;;;9.02;6.90;;;;;;;;;;5121440;28;20043;-76
2023/05/22 03:53:24;;;;;;;8.30;6.63;;;;;;;;;;5121265;28;20076;-75
2023/05/22 03:55:49;;;;;;;9.88;5.80;;;;;;;;;;5121722;28;20106;-74
2023/05/22 03:58:14;;;;;;;9.50;6.53;;;;;;;;;;5121402;28;20058;-75
2023/05/22 04:00:41;;;;;;;7.63;6.32;;;;;;;;;;5121412;28;20024;-75
2023/05/22 04:03:11;;;;;;;9.80;7.00;;;;;;;;;;5121294;28;20050;-74
2023/05/22 04:05:37;;;;;;;10.70;7.50;;;;;;;;;;5121458;28;20027;-74
2023/05/22 04:08:02;;;;;;;11.57;7.40;;;;;;;;;;5120972;28;20026;-75
2023/05/22 04:10:28;;;;;;;9.18;6.93;;;;;;;;;;5121334;28;20023;-74
2023/05/22 04:12:53;;;;;;;8.63;6.80;;;;;;;;;;5120383;28;20086;-75
2023/05/22 04:15:20;;;;;;;9.05;7.30;;;;;;;;;;5121281;28;20023;-74
2023/05/22 04:17:46;;;;;;;10.60;7.65;;;;;;;;;;5121281;28;20012;-74
2023/05/22 04:20:11;;;;;;;9.02;7.32;;;;;;;;;;5120937;28;20030;-74
2023/05/22 04:22:37;;;;;;;12.23;7.22;;;;;;;;;;5120516;28;20294;-75
2023/05/22 04:25:03;;;;;;;10.95;7.22;;;;;;;;;;5121062;28;20433;-74
2023/05/22 04:27:28;;;;;;;8.90;7.20;;;;;;;;;;5121093;28;20343;-74
2023/05/22 04:29:54;;;;;;;9.88;7.45;;;;;;;;;;5120910;28;20183;-75
2023/05/22 04:32:22;;;;;;;10.02;7.47;;;;;;;;;;5120867;28;20027;-75
2023/05/22 04:34:51;;;;;;;10.70;7.80;;;;;;;;;;5119156;28;20248;-75
2023/05/22 04:37:18;;;;;;;11.30;7.60;;;;;;;;;;5099985;28;20050;-75
2023/05/22 04:39:44;;;;;;;12.20;7.60;;;;;;;;;;5100230;28;20020;-74
2023/05/22 04:42:14;;;;;;;8.93;7.13;;;;;;;;;;5100202;28;20027;-74
2023/05/22 04:44:40;;;;;;;10.57;8.02;;;;;;;;;;5100363;28;20087;-75
2023/05/22 04:47:10;;;;;;;10.07;8.05;;;;;;;;;;5100511;28;20028;-74
2023/05/22 04:49:36;;;;;;;11.60;8.18;;;;;;;;;;5100245;28;20020;-74
2023/05/22 04:52:03;;;;;;;8.60;7.13;;;;;;;;;;5115679;28;20205;-74
2023/05/22 04:54:29;;;;;;;13.10;8.35;;;;;;;;;;5100189;28;20189;-74
2023/05/22 04:56:54;;;;;;;10.65;7.32;;;;;;;;;;5082164;28;20326;-73
2023/05/22 04:59:22;;;;;;;11.50;8.23;;;;;;;;;;5099985;28;20259;-75
2023/05/22 05:01:49;;;;;;;9.55;7.05;;;;;;;;;;5100206;28;20024;-77
2023/05/22 05:04:15;;;;;;;10.65;7.75;;;;;;;;;;5100361;28;20036;-75
2023/05/22 05:06:42;;;;;;;11.15;7.88;;;;;;;;;;5099893;28;20024;-75
2023/05/22 05:09:07;;;;;;;9.55;7.25;;;;;;;;;;5100068;28;20208;-75
2023/05/22 05:11:33;;;;;;;10.68;7.88;;;;;;;;;;5099932;28;20308;-74
2023/05/22 05:13:59;;;;;;;10.70;7.93;;;;;;;;;;5099929;28;20080;-75
2023/05/22 05:16:25;;;;;;;12.25;7.70;;;;;;;;;;5100008;28;20028;-75
2023/05/22 05:18:51;;;;;;;9.35;7.50;;;;;;;;;;5099843;28;20371;-74
2023/05/22 05:21:17;;;;;;;12.40;8.45;;;;;;;;;;5081529;28;20028;-75
2023/05/22 05:23:42;;;;;;;11.38;8.35;;;;;;;;;;5115584;28;20190;-75
2023/05/22 05:26:08;;;;;;;12.27;8.48;;;;;;;;;;5103752;28;20331;-75
2023/05/22 05:28:33;;;;;;;12.05;8.20;;;;;;;;;;5103919;28;20300;-75
2023/05/22 05:30:59;;;;;;;11.57;8.07;;;;;;;;;;5103973;28;20034;-75
2023/05/22 05:33:24;;;;;;;11.00;8.50;;;;;;;;;;5085695;28;20069;-75
2023/05/22 05:35:51;;;;;;;10.85;8.63;;;;;;;;;;5103869;28;20020;-74
2023/05/22 05:38:17;;;;;;;11.90;8.30;;;;;;;;;;5103615;28;20035;-74
2023/05/22 05:40:43;;;;;;;11.98;8.93;;;;;;;;;;5103973;28;20016;-75
2023/05/22 05:43:09;;;;;;;10.80;8.30;;;;;;;;;;5103601;28;20036;-74
2023/05/22 05:45:34;;;;;;;13.55;8.40;;;;;;;;;;5103959;28;20020;-75
2023/05/22 05:48:00;;;;;;;11.95;8.70;;;;;;;;;;5085493;28;20016;-73
2023/05/22 05:50:25;;;;;;;11.07;8.38;;;;;;;;;;5103350;28;20350;-74
2023/05/22 05:52:51;;;;;;;9.88;7.95;;;;;;;;;;5103300;28;20163;-75
2023/05/22 05:55:16;;;;;;;13.35;8.73;;;;;;;;;;5103575;28;20215;-74
2023/05/22 05:57:42;;;;;;;11.18;8.95;;;;;;;;;;5102206;28;20035;-75
2023/05/22 06:00:10;;;;;;;10.93;8.32;;;;;;;;;;5103279;28;20034;-77
2023/05/22 06:02:36;;;;;;;11.60;8.93;;;;;;;;;;5103521;28;20323;-74
2023/05/22 06:05:04;;;;;;;13.00;9.23;;;;;;;;;;5085100;28;20024;-74
2023/05/22 06:07:30;;;;;;;10.30;8.70;;;;;;;;;;5103113;28;20032;-76
2023/05/22 06:09:55;;;;;;;12.82;9.10;;;;;;;;;;5103131;28;20023;-75
2023/05/22 06:12:21;;;;;;;13.70;9.48;;;;;;;;;;5103364;28;20211;-74
2023/05/22 06:14:46;;;;;;;14.13;9.20;;;;;;;;;;5103243;28;20020;-74
2023/05/22 06:17:12;;;;;;;14.98;9.15;;;;;;;;;;5103162;28;20020;-75
2023/05/22 06:19:37;;;;;;;11.23;8.73;;;;;;;;;;5103088;28;20020;-75
2023/05/22 06:22:03;;;;;;;10.60;8.20;;;;;;;;;;5084372;28;20095;-74
2023/05/22 06:24:30;;;;;;;14.73;8.70;;;;;;;;;;5102732;28;20024;-74
2023/05/22 06:26:56;;;;;;;15.02;9.05;;;;;;;;;;5103021;28;20038;-75
2023/05/22 06:29:21;;;;;;;17.17;9.63;;;;;;;;;;5102894;28;20024;-77
2023/05/22 06:31:47;;;;;;;15.00;9.73;;;;;;;;;;5102795;28;20043;-74
2023/05/22 06:34:12;;;;;;;13.73;9.80;;;;;;;;;;5102769;28;20020;-74
2023/05/22 06:36:37;;;;;;;13.73;9.65;;;;;;;;;;5101723;28;20150;-74
2023/05/22 06:39:03;;;;;;;13.95;9.65;;;;;;;;;;5102661;28;20047;-74
2023/05/22 06:41:29;;;;;;;13.00;9.35;;;;;;;;;;5102438;28;20161;-76
2023/05/22 06:43:54;;;;;;;15.10;10.02;;;;;;;;;;5102605;28;20020;-75
2023/05/22 06:46:20;;;;;;;12.55;9.82;;;;;;;;;;5102611;28;20301;-74
2023/05/22 06:48:45;;;;;;;14.20;10.73;;;;;;;;;;5102474;28;20032;-74
2023/05/22 06:51:11;;;;;;;14.18;10.45;;;;;;;;;;5101766;28;20044;-74
2023/05/22 06:53:37;;;;;;;12.80;10.13;;;;;;;;;;5102561;28;20028;-75
2023/05/22 06:56:03;;;;;;;14.60;11.05;;;;;;;;;;5102327;28;20027;-75
2023/05/22 06:58:29;;;;;;;15.00;10.90;;;;;;;;;;5102329;28;20103;-74
2023/05/22 07:00:54;;;;;;;15.18;11.02;;;;;;;;;;5083975;28;20024;-75
2023/05/22 07:03:20;;;;;;;23.10;11.43;;;;;;;;;;5102177;28;20368;-74
2023/05/22 07:05:45;;;;;;;16.70;11.18;;;;;;;;;;5102222;28;20031;-74
2023/05/22 07:08:11;;;;;;;17.58;11.20;;;;;;;;;;5101767;28;20103;-74
2023/05/22 07:10:36;;;;;;;15.85;10.45;;;;;;;;;;5101979;28;20279;-74
2023/05/22 07:13:02;;;;;;;14.68;10.68;;;;;;;;;;5084127;28;20050;-74
2023/05/22 07:15:28;;;;;;;15.73;10.55;;;;;;;;;;5101911;28;20335;-74
2023/05/22 07:17:53;;;;;;;15.15;10.15;;;;;;;;;;5101834;28;20024;-74
2023/05/22 07:20:19;;;;;;;15.00;10.00;;;;;;;;;;5094198;28;20107;-73
2023/05/22 07:22:44;;;;;;;20.20;10.32;;;;;;;;;;5121778;28;20023;-73
2023/05/22 07:25:09;;;;;;;14.27;9.65;;;;;;;;;;5135447;27;20295;-74
2023/05/22 07:27:35;;;;;;;12.82;9.70;;;;;;;;;;5121997;28;20032;-77
2023/05/22 07:30:00;;;;;;;12.10;9.80;;;;;;;;;;5131373;27;20227;-74
2023/05/22 07:32:26;;;;;;;15.20;10.63;;;;;;;;;;5121549;28;20030;-73
2023/05/22 07:34:51;;;;;;;13.07;9.73;;;;;;;;;;5121837;28;20027;-73
2023/05/22 07:37:17;;;;;;;15.55;9.98;;;;;;;;;;5121376;28;20030;-73
2023/05/22 07:39:45;;;;;;;14.02;9.90;;;;;;;;;;5108985;28;20024;-76
2023/05/22 07:42:12;;;;;;;14.63;9.90;;;;;;;;;;5100264;28;20036;-75
2023/05/22 07:44:38;;;;;;;15.13;10.10;;;;;;;;;;5100238;28;20051;-75
2023/05/22 07:47:04;;;;;;;14.98;9.48;;;;;;;;;;5101425;28;20367;-74
2023/05/22 07:49:29;;;;;;;13.27;9.60;;;;;;;;;;5100885;28;20026;-75
2023/05/22 07:51:55;;;;;;;12.63;9.25;;;;;;;;;;5099687;28;20044;-75
2023/05/22 07:54:20;;;;;;;14.88;10.38;;;;;;;;;;5060973;28;20067;-75
2023/05/22 07:56:46;;;;;;;16.88;9.70;;;;;;;;;;5060895;28;20056;-74
2023/05/22 07:59:12;;;;;;;17.15;9.13;;;;;;;;;;5060873;28;20025;-74
2023/05/22 08:01:39;;;;;;;14.98;8.80;;;;;;;;;;5060532;28;20074;-75
2023/05/22 08:04:04;;;;;;;12.32;8.55;;;;;;;;;;5060157;28;20037;-74
2023/05/22 08:06:30;;;;;;;16.38;9.50;;;;;;;;;;5060319;28;20319;-75
2023/05/22 08:08:55;;;;;;;11.40;8.40;;;;;;;;;;5060656;28;20017;-74
2023/05/22 08:11:21;;;;;;;13.93;9.48;;;;;;;;;;5101648;28;20083;-74
2023/05/22 08:13:47;;;;;;;14.70;8.25;;;;;;;;;;5079874;28;20371;-74
2023/05/22 08:16:12;;;;;;;17.27;8.57;;;;;;;;;;5080081;28;20021;-74
2023/05/22 08:18:37;;;;;;;14.48;8.93;;;;;;;;;;5080460;28;20485;-74
2023/05/22 08:21:03;;;;;;;11.00;8.43;;;;;;;;;;5069285;28;20029;-74
2023/05/22 08:23:28;;;;;;;10.52;8.45;;;;;;;;;;5075070;28;20024;-74
2023/05/22 08:25:55;;;;;;;13.85;8.63;;;;;;;;;;5068485;28;20070;-74
2023/05/22 08:28:20;;;;;;;14.55;9.27;;;;;;;;;;5080044;28;20096;-75
2023/05/22 08:30:46;;;;;;;13.45;9.00;;;;;;;;;;5080092;28;20020;-74
2023/05/22 08:33:11;;;;;;;10.90;8.27;;;;;;;;;;5112708;28;20025;-74
2023/05/22 08:35:36;;;;;;;10.60;8.07;;;;;;;;;;5080023;28;20035;-75
2023/05/22 08:38:02;;;;;;;14.30;8.20;;;;;;;;;;5079123;28;20028;-74
2023/05/22 08:40:39;;;;;;;12.65;8.40;;;;;;;;;;5079909;28;20255;-74
2023/05/22 08:43:05;;;;;;;11.70;7.65;;;;;;;;;;5079891;28;20093;-74
2023/05/22 08:45:32;;;;;;;13.40;8.15;;;;;;;;;;5079659;28;20145;-74
2023/05/22 08:48:03;;;;;;;10.13;7.93;;;;;;;;;;5080049;28;20032;-74
2023/05/22 08:50:29;;;;;;;12.52;8.43;;;;;;;;;;5082152;28;20048;-74
2023/05/22 08:52:58;;;;;;;10.93;7.53;;;;;;;;;;5119734;28;20042;-74
2023/05/22 08:55:23;;;;;;;11.75;7.47;;;;;;;;;;5120094;28;20037;-74
2023/05/22 08:57:50;;;;;;;12.07;7.78;;;;;;;;;;5119926;28;20032;-74
2023/05/22 09:00:16;;;;;;;11.55;7.88;;;;;;;;;;5118755;28;20020;-74
2023/05/22 09:02:42;;;;;;;11.85;7.35;;;;;;;;;;5119582;28;20050;-74
2023/05/22 09:05:08;;;;;;;12.55;7.70;;;;;;;;;;5120176;28;20311;-74
2023/05/22 09:07:34;;;;;;;9.57;7.38;;;;;;;;;;5119931;28;20024;-74
2023/05/22 09:10:04;;;;;;;9.90;7.05;;;;;;;;;;5120312;28;20312;-74
2023/05/22 09:12:30;;;;;;;8.90;6.85;;;;;;;;;;5109152;28;20081;-73
2023/05/22 09:14:58;;;;;;;10.52;6.90;;;;;;;;;;5115758;28;20030;-74
2023/05/22 09:17:25;;;;;;;10.73;7.80;;;;;;;;;;5120277;28;20350;-74
2023/05/22 09:19:50;;;;;;;12.45;7.32;;;;;;;;;;5123403;28;20023;-74
2023/05/22 09:22:16;;;;;;;10.30;7.18;;;;;;;;;;5135458;28;20025;-73
2023/05/22 09:24:43;;;;;;;9.68;7.07;;;;;;;;;;5120335;28;20318;-74
2023/05/22 09:27:10;;;;;;;10.30;7.22;;;;;;;;;;5120178;28;20091;-74
2023/05/22 09:29:49;;;;;;;10.82;7.00;;;;;;;;;;5120370;28;20035;-74
2023/05/22 09:32:16;;;;;;;10.23;7.32;;;;;;;;;;5120250;28;20020;-74
2023/05/22 09:34:43;;;;;;;11.55;6.88;;;;;;;;;;5120315;28;20049;-74
2023/05/22 09:37:10;;;;;;;11.32;6.80;;;;;;;;;;5119629;28;20041;-74
2023/05/22 09:39:40;;;;;;;8.32;6.55;;;;;;;;;;5120034;28;20024;-75
2023/05/22 09:42:08;;;;;;;8.70;6.30;;;;;;;;;;5119914;28;20409;-73
2023/05/22 09:44:34;;;;;;;9.30;5.85;;;;;;;;;;5119980;28;20028;-74
2023/05/22 09:46:59;;;;;;;10.43;6.30;;;;;;;;;;5116364;28;20380;-74
2023/05/22 09:49:25;;;;;;;10.32;6.00;;;;;;;;;;5120169;28;20024;-74
2023/05/22 09:51:53;;;;;;;9.60;6.10;;;;;;;;;;5119275;28;20080;-74
2023/05/22 09:54:20;;;;;;;9.60;6.35;;;;;;;;;;5103948;28;20085;-74
2023/05/22 09:56:49;;;;;;;9.02;6.43;;;;;;;;;;5098414;28;20328;-74
2023/05/22 09:59:20;;;;;;;7.93;6.28;;;;;;;;;;5099386;28;20334;-74
2023/05/22 10:01:47;;;;;;;9.02;6.50;;;;;;;;;;5133572;28;20068;-74
2023/05/22 10:04:13;;;;;;;10.05;6.32;;;;;;;;;;5132044;28;20031;-74
2023/05/22 10:06:40;;;;;;;8.88;6.15;;;;;;;;;;5106371;28;20331;-74
2023/05/22 10:09:14;;;;;;;8.55;6.50;;;;;;;;;;5098789;28;20024;-74
2023/05/22 10:11:40;;;;;;;11.30;6.72;;;;;;;;;;5099747;28;20050;-75
2023/05/22 10:14:07;;;;;;;9.73;6.53;;;;;;;;;;5102603;28;20012;-74
2023/05/22 10:16:37;;;;;;;9.65;6.65;;;;;;;;;;5102368;28;20016;-75
2023/05/22 10:19:03;;;;;;;8.20;6.22;;;;;;;;;;5103251;28;20023;-75
2023/05/22 10:21:30;;;;;;;8.40;5.53;;;;;;;;;;5102629;28;20492;-74
2023/05/22 10:23:58;;;;;;;9.23;6.63;;;;;;;;;;5084937;28;20192;-74
2023/05/22 10:26:24;;;;;;;7.72;5.80;;;;;;;;;;5103038;28;20040;-74
2023/05/22 10:29:01;;;;;;;7.70;5.63;;;;;;;;;;5084891;28;20115;-75
2023/05/22 10:31:53;;;;;;;8.55;5.82;;;;;;;;;;5102835;28;20024;-74
2023/05/22 10:34:31;;;;;;;7.43;5.20;;;;;;;;;;5102745;28;20028;-76
2023/05/22 10:37:22;;;;;;;9.90;5.35;;;;;;;;;;5102480;28;20031;-76
2023/05/22 10:39:59;;;;;;;6.65;5.03;;;;;;;;;;5102684;28;20043;-75
2023/05/22 10:42:29;;;;;;;6.63;5.10;;;;;;;;;;5102488;28;20055;-75
2023/05/22 10:44:54;;;;;;;7.07;5.13;;;;;;;;;;5102876;28;20031;-76
2023/05/22 10:47:20;;;;;;;7.57;5.10;;;;;;;;;;5102531;28;20024;-76
2023/05/22 10:49:45;;;;;;;7.43;5.10;;;;;;;;;;5102601;28;20530;-77
2023/05/22 10:52:13;;;;;;;8.45;5.30;;;;;;;;;;5101634;28;20040;-75
2023/05/22 10:54:44;;;;;;;6.68;5.00;;;;;;;;;;5102565;28;20034;-74
2023/05/22 10:57:13;;;;;;;;;;;;;;;;;;5113033;28;20379;-73
2023/05/22 10:59:39;;;;;;;7.60;5.28;;;;;;;;;;5111253;28;19912;-76
2023/05/22 11:02:05;;;;;;;8.40;5.28;;;;;;;;;;5110885;28;20054;-74
2023/05/22 11:04:31;;;;;;;7.05;5.00;;;;;;;;;;5110962;28;20153;-77
2023/05/22 11:07:04;;;;;;;8.00;4.90;;;;;;;;;;5110495;28;20102;-73
2023/05/22 11:09:31;;;;;;;7.25;5.32;;;;;;;;;;5110834;28;20042;-74
2023/05/22 11:12:23;;;;;;;7.25;4.68;;;;;;;;;;5103339;28;20470;-74
2023/05/22 11:14:55;;;;;;;6.70;5.10;;;;;;;;;;5107698;28;20024;-74
2023/05/22 11:17:26;;;;;;;6.97;5.35;;;;;;;;;;5090268;28;20028;-74
2023/05/22 11:20:05;;;;;;;7.80;4.95;;;;;;;;;;5096426;28;20106;-75
2023/05/22 11:22:43;;;;;;;9.05;5.90;;;;;;;;;;5109757;28;20088;-77
2023/05/22 11:25:19;;;;;;;8.20;5.30;;;;;;;;;;5110646;28;20111;-74
2023/05/22 11:27:46;;;;;;;7.07;5.38;;;;;;;;;;5109478;28;20019;-73
2023/05/22 11:30:12;;;;;;;7.45;5.32;;;;;;;;;;5092582;28;20035;-74
2023/05/22 11:32:40;;;;;;;8.05;5.00;;;;;;;;;;5091368;28;20019;-73
2023/05/22 11:35:08;;;;;;;7.90;4.70;;;;;;;;;;5090729;28;20080;-73
2023/05/22 11:37:38;;;;;;;8.18;5.20;;;;;;;;;;5109997;28;20072;-73
2023/05/22 11:40:06;;;;;;;7.93;5.10;;;;;;;;;;5091410;28;20511;-73
2023/05/22 11:42:32;;;;;;;5.55;4.47;;;;;;;;;;5090326;28;20601;-73
2023/05/22 11:44:59;;;;;;;11.15;4.82;;;;;;;;;;5094094;28;20057;-73
2023/05/22 11:47:27;;;;;;;7.28;5.18;;;;;;;;;;5115242;28;20019;-72
2023/05/22 11:49:54;;;;;;;5.93;4.65;;;;;;;;;;5115317;28;20027;-72
2023/05/22 11:52:19;;;;;;;6.97;4.55;;;;;;;;;;5111065;28;20043;-72
2023/05/22 11:54:45;;;;;;;5.18;4.28;;;;;;;;;;5111401;28;20143;-72
2023/05/22 11:57:12;;;;;;;5.85;4.50;;;;;;;;;;5113425;28;20050;-72
2023/05/22 11:59:37;;;;;;;5.93;4.00;;;;;;;;;;5111426;28;20592;-73
2023/05/22 12:02:03;;;;;;;5.53;4.80;;;;;;;;;;5110323;28;20073;-72
2023/05/22 12:04:28;;;;;;;7.50;5.00;;;;;;;;;;5109339;28;20449;-72
2023/05/22 12:06:54;;;;;;;9.05;4.55;;;;;;;;;;5109606;28;20024;-72
2023/05/22 12:09:20;;;;;;;6.28;4.65;;;;;;;;;;5109901;28;20031;-72
2023/05/22 12:11:47;;;;;;;5.90;4.35;;;;;;;;;;5109664;28;20035;-72
2023/05/22 12:14:12;;;;;;;6.47;4.20;;;;;;;;;;5109816;28;20133;-73
2023/05/22 12:16:38;;;;;;;8.32;4.68;;;;;;;;;;5110174;28;20059;-73
2023/05/22 12:19:10;;;;;;;6.85;4.70;;;;;;;;;;5107946;28;20055;-72
2023/05/22 12:21:40;;;;;;;7.05;4.47;;;;;;;;;;5109217;28;20085;-71
2023/05/22 12:24:07;;;;;;;6.35;4.68;;;;;;;;;;5104396;28;20020;-72
2023/05/22 12:26:32;;;;;;;6.78;4.55;;;;;;;;;;5089285;28;20028;-71
2023/05/22 12:28:58;;;;;;;9.13;4.35;;;;;;;;;;5088983;28;20024;-73
2023/05/22 12:31:24;;;;;;;7.45;4.10;;;;;;;;;;5089161;28;20024;-72
2023/05/22 12:33:54;;;;;;;7.65;4.43;;;;;;;;;;5088053;28;20035;-71
2023/05/22 12:36:20;;;;;;;7.55;4.32;;;;;;;;;;5088268;28;20032;-72
2023/05/22 12:38:45;;;;;;;6.75;4.25;;;;;;;;;;5088473;28;20035;-73
2023/05/22 12:41:11;;;;;;;8.85;4.80;;;;;;;;;;5088813;28;20107;-72
2023/05/22 12:43:36;;;;;;;10.07;5.80;;;;;;;;;;5088516;28;20518;-73
2023/05/22 12:46:02;;;;;;;9.82;5.18;;;;;;;;;;5097521;28;20075;-72
2023/05/22 12:48:27;;;;;;;8.50;5.53;;;;;;;;;;5108869;28;20027;-73
2023/05/22 12:50:53;;;;;;;7.57;5.28;;;;;;;;;;5109081;28;20582;-73
2023/05/22 12:53:19;;;;;;;10.82;5.63;;;;;;;;;;5108029;28;20112;-73
2023/05/22 12:55:45;;;;;;;8.40;5.70;;;;;;;;;;5108865;28;20031;-73
2023/05/22 12:58:10;;;;;;;8.15;5.65;;;;;;;;;;5090394;28;20027;-73
2023/05/22 13:00:36;;;;;;;7.57;5.40;;;;;;;;;;5108803;28;20031;-72
2023/05/22 13:03:02;;;;;;;10.93;6.22;;;;;;;;;;5090458;28;20386;-72
2023/05/22 13:05:27;;;;;;;8.75;5.63;;;;;;;;;;5109674;28;20027;-73
2023/05/22 13:07:53;;;;;;;8.40;6.10;;;;;;;;;;5108575;28;20442;-73
2023/05/22 13:10:18;;;;;;;7.57;5.90;;;;;;;;;;5090311;28;20031;-73
2023/05/22 13:12:46;;;;;;;9.18;6.50;;;;;;;;;;5108570;28;20382;-74
2023/05/22 13:15:14;;;;;;;10.50;6.20;;;;;;;;;;5108555;28;20020;-74
2023/05/22 13:17:39;;;;;;;8.43;5.85;;;;;;;;;;5108742;28;20023;-73
2023/05/22 13:20:05;;;;;;;10.38;6.25;;;;;;;;;;5108313;28;20032;-73
2023/05/22 13:22:31;;;;;;;8.57;6.40;;;;;;;;;;5108681;28;20069;-73
2023/05/22 13:24:56;;;;;;;8.25;6.07;;;;;;;;;;5108609;28;20016;-72
2023/05/22 13:27:22;;;;;;;7.80;5.40;;;;;;;;;;5111120;28;20379;-73
2023/05/22 13:29:47;;;;;;;7.20;5.78;;;;;;;;;;5120215;28;20023;-73
2023/05/22 13:32:13;;;;;;;10.52;6.30;;;;;;;;;;5117454;28;20051;-74
2023/05/22 13:34:39;;;;;;;8.25;5.35;;;;;;;;;;5114191;28;20024;-73
2023/05/22 13:37:05;;;;;;;9.63;6.47;;;;;;;;;;5088517;28;20035;-72
2023/05/22 13:39:30;;;;;;;8.40;6.20;;;;;;;;;;5089976;28;20479;-72
2023/05/22 13:41:56;;;;;;;9.70;6.72;;;;;;;;;;5108382;28;20023;-72
2023/05/22 13:44:22;;;;;;;14.40;7.22;;;;;;;;;;5107770;28;20091;-70
2023/05/22 13:46:47;;;;;;;10.95;7.38;;;;;;;;;;5116334;28;20028;-71
2023/05/22 13:49:13;;;;;;;1040.30;148.57;;;;;;;;;;5117531;28;20106;-70
2023/05/22 13:51:38;;;;;;;68.10;13.57;;;;;;;;;;5111790;28;20039;-71
2023/05/22 13:54:03;;;;;;;182.75;21.95;;;;;;;;;;5112234;28;20409;-71
2023/05/22 13:56:29;;;;;;;16.40;8.23;;;;;;;;;;5112372;28;20024;-71
2023/05/22 13:58:55;;;;;;;19.02;7.28;;;;;;;;;;5114919;28;20099;-72
2023/05/22 14:01:20;;;;;;;18.15;7.90;;;;;;;;;;5112166;28;20507;-71
2023/05/22 14:03:45;;;;;;;70.22;13.40;;;;;;;;;;5111020;28;20471;-70
2023/05/22 14:06:11;;;;;;;13.70;8.23;;;;;;;;;;5111022;28;20027;-71
2023/05/22 14:08:36;;;;;;;12.93;7.47;;;;;;;;;;5110597;28;20487;-70
2023/05/22 14:11:02;;;;;;;11.45;6.95;;;;;;;;;;5111750;28;20027;-70
2023/05/22 14:13:27;;;;;;;9.73;7.15;;;;;;;;;;5113231;28;20027;-71
2023/05/22 14:15:53;;;;;;;11.55;7.97;;;;;;;;;;5111816;28;20011;-70
2023/05/22 14:18:18;;;;;;;11.10;7.63;;;;;;;;;;5110355;28;20027;-71
2023/05/22 14:20:44;;;;;;;10.85;7.22;;;;;;;;;;5109948;28;20058;-71
2023/05/22 14:23:13;;;;;;;11.27;6.80;;;;;;;;;;5111126;28;20439;-70
2023/05/22 14:25:42;;;;;;;9.63;7.57;;;;;;;;;;5111561;28;20099;-70
2023/05/22 14:28:11;;;;;;;10.60;7.18;;;;;;;;;;5112014;28;20094;-68
2023/05/22 14:30:37;;;;;;;38.20;9.63;;;;;;;;;;5111761;28;20027;-71
2023/05/22 14:33:03;;;;;;;10.73;7.20;;;;;;;;;;5111763;28;20030;-71
2023/05/22 14:35:28;;;;;;;8.73;6.50;;;;;;;;;;5097738;28;20027;-71
2023/05/22 14:37:53;;;;;;;7.35;6.00;;;;;;;;;;5102329;28;20041;-71